Terminal Aerodrome Forecast
Issued by NWS Brownsville, TX

Current Version | Previous Version | Text Only | Print | Product List | Glossary Off
Versions: 1 2 3 4 5 6 7 8 9 10 11 12 13 14

148
FTUS44 KBRO 202320
TAFHRL
TAF
KHRL 202320Z 2100/2124 11016KT P6SM SKC
     FM210400 14005KT P6SM FEW025
     FM211000 16006KT 3SM BR FEW020
      TEMPO 2110/2114 1/2SM FG FEW035
     FM211800 17011KT P6SM BKN050
     FM211900 16012G18KT P6SM BKN050=

USA.gov is the U.S. government's official web portal to all federal, state and local government web resources and services.